Rupert, Vermont
Current Conditions -  °F | °C
As of 5:53 PM on Saturday 25 Oct 2014 (Local Time) from KGFL Reporting Station
Overcast Overcast  
Wind Chill: 58°   Ceiling: 7000
Heat Index: 58°   Visibility: 10mi
Dew Point: 46°   Wind: 8mph
Humidity: 65%   Direction: 170°S
Pressure: 29.55"   Gusts: NA
Location:  43.26°N, 73.22°W
Report Text: KGFL 252153Z AUTO 17007KT 10SM OVC070 14/08 A2955 RMK AO2 SLP010 T01440078
Loading
Personal Weather Stations






























Interactive Weather Map New forecast layout! Learn more

10-Day Weather Forecast

Advertisements
Track Severe Weather on mobile